Time;durP1;ratioP1;P1;durP2;ratioP2;P2;SDS_P1;SDS_P2;PMS_P1;PMS_P2;Temp;Humidity;BMP_temperature;BMP_pressure;BME280_temperature;BME280_humidity;BME280_pressure;Samples;Min_cycle;Max_cycle;Signal;HPM_P1;HPM_P2
2023/01/21 00:00:42;;;;;;;48.00;16.02;;;0.40;99.90;;;;;;5075400;28;20396;-42
2023/01/21 00:03:07;;;;;;;47.60;16.17;;;0.40;99.90;;;;;;5075328;28;20047;-40
2023/01/21 00:05:34;;;;;;;52.97;15.48;;;0.40;99.90;;;;;;5075637;28;20078;-41
2023/01/21 00:07:59;;;;;;;44.40;16.35;;;0.40;99.90;;;;;;5067758;28;20020;-42
2023/01/21 00:10:25;;;;;;;38.80;14.50;;;0.40;99.90;;;;;;5061101;28;20044;-43
2023/01/21 00:12:51;;;;;;;45.95;14.65;;;0.40;99.90;;;;;;5074380;28;20025;-45
2023/01/21 00:15:16;;;;;;;42.72;15.45;;;0.40;99.90;;;;;;5075221;28;20020;-40
2023/01/21 00:17:42;;;;;;;48.78;15.57;;;0.40;99.90;;;;;;5075362;28;20480;-42
2023/01/21 00:20:09;;;;;;;46.30;15.05;;;0.40;99.90;;;;;;5075005;28;20016;-41
2023/01/21 00:22:35;;;;;;;37.92;14.68;;;0.50;99.90;;;;;;5075340;28;20063;-42
2023/01/21 00:25:01;;;;;;;41.03;14.23;;;0.50;99.90;;;;;;5073066;28;20064;-43
2023/01/21 00:27:27;;;;;;;54.20;15.63;;;0.50;99.90;;;;;;5074772;28;20500;-42
2023/01/21 00:29:53;;;;;;;49.75;15.25;;;0.40;99.90;;;;;;5074995;28;20111;-43
2023/01/21 00:32:21;;;;;;;42.67;14.75;;;0.50;99.90;;;;;;5074810;28;20644;-44
2023/01/21 00:34:47;;;;;;;53.17;15.80;;;0.50;99.90;;;;;;5073439;28;20028;-42
2023/01/21 00:37:12;;;;;;;50.63;16.80;;;0.50;99.90;;;;;;5074600;28;20027;-43
2023/01/21 00:39:41;;;;;;;40.40;14.75;;;0.50;99.90;;;;;;5074626;28;20021;-36
2023/01/21 00:42:08;;;;;;;45.42;15.48;;;0.40;99.90;;;;;;5072844;28;20028;-40
2023/01/21 00:44:33;;;;;;;43.15;15.65;;;0.40;99.90;;;;;;5073891;28;20027;-41
2023/01/21 00:46:59;;;;;;;50.95;15.48;;;0.50;99.90;;;;;;5073075;28;20044;-40
2023/01/21 00:49:24;;;;;;;57.75;14.90;;;0.50;99.90;;;;;;5072725;28;20033;-38
2023/01/21 00:51:50;;;;;;;45.42;15.77;;;0.50;99.90;;;;;;5070334;28;20046;-35
2023/01/21 00:54:16;;;;;;;38.03;14.55;;;0.50;99.90;;;;;;5074260;28;20035;-39
2023/01/21 00:56:41;;;;;;;41.08;14.07;;;0.50;99.90;;;;;;5073146;28;20032;-39
2023/01/21 00:59:07;;;;;;;42.10;14.35;;;0.50;99.90;;;;;;5073784;28;20389;-37
2023/01/21 01:01:36;;;;;;;38.15;13.70;;;0.40;99.90;;;;;;5074167;28;20055;-37
2023/01/21 01:04:02;;;;;;;42.35;13.52;;;0.40;99.90;;;;;;5074420;28;20479;-38
2023/01/21 01:06:27;;;;;;;34.15;13.15;;;0.40;99.90;;;;;;5074156;28;20058;-34
2023/01/21 01:08:56;;;;;;;47.33;14.45;;;0.30;99.90;;;;;;5073882;28;20025;-38
2023/01/21 01:11:24;;;;;;;38.80;14.50;;;0.30;99.90;;;;;;5073072;28;20161;-42
2023/01/21 01:13:50;;;;;;;43.00;13.77;;;0.30;99.90;;;;;;5073878;28;20087;-42
2023/01/21 01:16:16;;;;;;;32.70;12.50;;;0.30;99.90;;;;;;5073141;28;20029;-40
2023/01/21 01:18:42;;;;;;;35.13;13.38;;;0.30;99.90;;;;;;5073863;28;20016;-42
2023/01/21 01:21:11;;;;;;;42.90;13.55;;;0.20;99.90;;;;;;5073775;28;20024;-41
2023/01/21 01:23:37;;;;;;;45.70;12.70;;;0.30;99.90;;;;;;5093860;28;20024;-41
2023/01/21 01:26:08;;;;;;;45.78;14.23;;;0.30;99.90;;;;;;5092157;28;20399;-36
2023/01/21 01:28:34;;;;;;;41.97;13.15;;;0.30;99.90;;;;;;5053727;28;20037;-40
2023/01/21 01:31:02;;;;;;;36.38;13.23;;;0.30;99.90;;;;;;5070360;28;20508;-37
2023/01/21 01:33:29;;;;;;;35.83;13.27;;;0.30;99.90;;;;;;5071654;28;20025;-41
2023/01/21 01:35:59;;;;;;;43.58;13.57;;;0.30;99.90;;;;;;5070975;28;20028;-39
2023/01/21 01:38:25;;;;;;;40.88;13.88;;;0.30;99.90;;;;;;5071773;28;20380;-35
2023/01/21 01:40:53;;;;;;;43.90;12.88;;;0.30;99.90;;;;;;5070599;28;20020;-37
2023/01/21 01:43:23;;;;;;;37.42;12.60;;;0.20;99.90;;;;;;5072561;28;20458;-40
2023/01/21 01:45:49;;;;;;;37.60;14.40;;;0.20;99.90;;;;;;5068996;28;20031;-39
2023/01/21 01:48:28;;;;;;;30.10;13.23;;;0.20;99.90;;;;;;5073154;28;20028;-39
2023/01/21 01:51:00;;;;;;;36.70;12.25;;;0.20;99.90;;;;;;5072410;28;20058;-35
2023/01/21 01:53:28;;;;;;;34.72;12.52;;;0.20;99.90;;;;;;5067860;28;20089;-35
2023/01/21 01:55:54;;;;;;;40.03;13.50;;;0.20;99.90;;;;;;5067163;28;20032;-37
2023/01/21 01:58:21;;;;;;;31.98;12.32;;;0.10;99.90;;;;;;5071544;28;20124;-37
2023/01/21 02:00:47;;;;;;;33.00;12.13;;;0.10;99.90;;;;;;5069004;28;20029;-40
2023/01/21 02:05:58;;;;;;;37.13;12.35;;;0.20;99.90;;;;;;5063819;28;20046;-43
2023/01/21 02:08:25;;;;;;;38.22;13.50;;;0.20;99.90;;;;;;5064183;28;20017;-42
2023/01/21 02:10:52;;;;;;;34.10;13.10;;;0.20;99.90;;;;;;5072840;28;20476;-41
2023/01/21 02:13:18;;;;;;;38.58;13.88;;;0.30;99.90;;;;;;5072843;28;20039;-42
2023/01/21 02:16:23;;;;;;;33.05;12.95;;;0.30;99.90;;;;;;5072867;28;20032;-39
2023/01/21 02:19:18;;;;;;;29.45;10.93;;;0.20;99.90;;;;;;5073168;28;20549;-38
2023/01/21 02:21:47;;;;;;;37.38;11.82;;;0.30;99.90;;;;;;5072233;28;20021;-39
2023/01/21 02:24:18;;;;;;;41.10;13.75;;;0.20;99.90;;;;;;5071599;28;20107;-40
2023/01/21 02:26:56;;;;;;;36.05;12.45;;;0.20;99.90;;;;;;5070811;28;20503;-41
2023/01/21 02:29:55;;;;;;;30.20;11.85;;;0.10;99.90;;;;;;5061695;28;20032;-38
2023/01/21 02:32:36;;;;;;;38.10;11.20;;;0.10;99.90;;;;;;5072580;28;20477;-36
2023/01/21 02:35:19;;;;;;;34.38;11.85;;;0.10;99.90;;;;;;5072643;28;20371;-42
2023/01/21 02:38:05;;;;;;;32.75;11.30;;;0.10;99.90;;;;;;5072657;28;20078;-41
2023/01/21 02:40:47;;;;;;;31.95;11.82;;;0.10;99.90;;;;;;5071910;28;20461;-41
2023/01/21 02:43:28;;;;;;;39.25;12.35;;;0.00;99.90;;;;;;5072335;28;20372;-40
2023/01/21 02:46:27;;;;;;;28.48;11.10;;;0.10;99.90;;;;;;5087887;28;20123;-43
2023/01/21 02:49:07;;;;;;;33.13;12.63;;;0.10;99.90;;;;;;5048194;28;20033;-42
2023/01/21 02:51:34;;;;;;;36.00;12.95;;;0.10;99.90;;;;;;5053852;28;20041;-41
2023/01/21 02:54:11;;;;;;;33.03;12.15;;;0.10;99.90;;;;;;5066456;28;20155;-36
2023/01/21 02:56:36;;;;;;;33.40;12.15;;;0.00;99.90;;;;;;5066538;28;20472;-40
2023/01/21 02:59:04;;;;;;;31.27;11.82;;;0.00;99.90;;;;;;5070641;28;20069;-43
2023/01/21 03:01:33;;;;;;;;;;;0.00;99.90;;;;;;5072947;28;20060;-43
2023/01/21 03:04:32;;;;;;;28.70;10.55;;;0.00;99.90;;;;;;5072765;28;20348;-43
2023/01/21 03:07:06;;;;;;;33.65;11.88;;;0.00;99.90;;;;;;5071545;28;20513;-47
2023/01/21 03:09:33;;;;;;;28.27;11.30;;;0.00;99.90;;;;;;5070699;28;20095;-43
2023/01/21 03:12:17;;;;;;;31.27;10.65;;;0.00;99.90;;;;;;5072432;28;20024;-46
2023/01/21 03:17:55;;;;;;;32.28;11.88;;;0.00;99.90;;;;;;5072677;28;20097;-41
2023/01/21 03:20:30;;;;;;;28.30;11.75;;;0.00;99.90;;;;;;5071193;28;20546;-43
2023/01/21 03:23:02;;;;;;;43.65;13.52;;;0.00;99.90;;;;;;5072133;28;20029;-40
2023/01/21 03:25:32;;;;;;;33.60;11.52;;;-0.10;99.90;;;;;;5071555;28;20048;-42
2023/01/21 03:27:59;;;;;;;40.53;13.95;;;-0.10;99.90;;;;;;5072280;28;20032;-41
2023/01/21 03:30:26;;;;;;;30.65;11.93;;;-0.20;99.90;;;;;;5072257;28;20062;-43
2023/01/21 03:32:54;;;;;;;30.00;11.82;;;-0.10;99.90;;;;;;5071229;28;20029;-38
2023/01/21 03:35:24;;;;;;;36.00;11.95;;;-0.10;99.90;;;;;;5074940;28;20032;-40
2023/01/21 03:37:59;;;;;;;26.65;10.85;;;-0.10;99.90;;;;;;5076047;28;20028;-37
2023/01/21 03:40:34;;;;;;;32.92;12.05;;;-0.20;99.90;;;;;;5075146;28;20460;-38
2023/01/21 03:43:01;;;;;;;34.10;12.25;;;-0.20;99.90;;;;;;5075782;28;20107;-40
2023/01/21 03:45:31;;;;;;;30.40;10.68;;;-0.20;99.90;;;;;;5074927;28;20021;-38
2023/01/21 03:48:04;;;;;;;32.90;11.82;;;-0.30;99.90;;;;;;5075662;28;20036;-38
2023/01/21 03:50:38;;;;;;;29.00;11.48;;;-0.30;99.90;;;;;;5074613;28;20031;-34
2023/01/21 03:53:05;;;;;;;33.53;13.10;;;-0.30;99.90;;;;;;5075399;28;20496;-39
2023/01/21 03:55:30;;;;;;;31.92;12.65;;;-0.40;99.90;;;;;;5074457;28;20491;-37
2023/01/21 03:57:56;;;;;;;38.38;13.27;;;-0.40;99.90;;;;;;5075344;28;20017;-38
2023/01/21 04:00:21;;;;;;;39.47;12.52;;;-0.40;99.90;;;;;;5075693;28;20376;-38
2023/01/21 04:02:47;;;;;;;37.17;12.00;;;-0.40;99.90;;;;;;5075366;28;20469;-39
2023/01/21 04:05:13;;;;;;;36.80;11.90;;;-0.40;99.90;;;;;;5074874;28;20021;-36
2023/01/21 04:07:38;;;;;;;39.70;13.10;;;-0.40;99.90;;;;;;5075119;28;20032;-37
2023/01/21 04:10:04;;;;;;;38.22;13.30;;;-0.40;99.90;;;;;;5075254;28;20101;-41
2023/01/21 04:12:30;;;;;;;38.10;11.68;;;-0.30;99.90;;;;;;5072792;28;20486;-43
2023/01/21 04:14:57;;;;;;;36.88;12.15;;;-0.30;99.90;;;;;;5055185;28;20025;-41
2023/01/21 04:17:22;;;;;;;41.95;11.85;;;-0.30;99.90;;;;;;5071823;28;20033;-41
2023/01/21 04:19:48;;;;;;;37.08;12.70;;;-0.30;99.90;;;;;;5071624;28;20017;-41
2023/01/21 04:22:13;;;;;;;34.58;11.85;;;-0.30;99.90;;;;;;5074254;28;20025;-36
2023/01/21 04:24:39;;;;;;;36.13;12.15;;;-0.30;99.90;;;;;;5074814;28;20035;-43
2023/01/21 04:27:05;;;;;;;33.10;11.98;;;-0.30;99.90;;;;;;5073221;28;20031;-42
2023/01/21 04:29:51;;;;;;;36.00;12.07;;;-0.30;99.90;;;;;;5075088;28;20388;-45
2023/01/21 04:32:17;;;;;;;32.95;12.18;;;-0.40;99.90;;;;;;5074060;28;20097;-45
2023/01/21 04:34:42;;;;;;;37.45;12.88;;;-0.40;99.90;;;;;;5072688;28;20041;-43
2023/01/21 04:37:08;;;;;;;36.80;11.90;;;-0.40;99.90;;;;;;5072765;28;20035;-42
2023/01/21 04:39:33;;;;;;;29.83;11.10;;;-0.40;99.90;;;;;;5074411;28;20488;-42
2023/01/21 04:41:59;;;;;;;34.55;12.10;;;-0.40;99.90;;;;;;5072912;28;20021;-44
2023/01/21 04:44:25;;;;;;;37.13;11.85;;;-0.40;99.90;;;;;;5074174;28;20489;-43
2023/01/21 04:46:50;;;;;;;39.45;12.38;;;-0.30;99.90;;;;;;5073683;28;20055;-42
2023/01/21 04:49:16;;;;;;;33.35;11.70;;;-0.30;99.90;;;;;;5072651;28;20496;-43
2023/01/21 04:51:41;;;;;;;33.70;10.52;;;-0.30;99.90;;;;;;5074424;28;20057;-41
2023/01/21 04:54:10;;;;;;;32.40;12.38;;;-0.30;99.90;;;;;;5074644;28;20017;-40
2023/01/21 04:56:35;;;;;;;;;;;-0.30;99.90;;;;;;5073899;28;20021;-43
2023/01/21 04:59:01;;;;;;;26.10;10.48;;;-0.30;99.90;;;;;;5073626;28;19908;-43
2023/01/21 05:01:27;;;;;;;32.40;11.85;;;-0.30;99.90;;;;;;5074250;28;20473;-43
2023/01/21 05:03:52;;;;;;;32.65;12.48;;;-0.30;99.90;;;;;;5073174;28;20025;-38
2023/01/21 05:06:18;;;;;;;32.50;11.38;;;-0.40;99.90;;;;;;5072843;28;20028;-37
2023/01/21 05:08:43;;;;;;;35.20;12.98;;;-0.40;99.90;;;;;;5072252;28;20085;-41
2023/01/21 05:11:13;;;;;;;37.78;12.27;;;-0.30;99.90;;;;;;5073717;28;20455;-37
2023/01/21 05:13:38;;;;;;;34.20;12.75;;;-0.30;99.90;;;;;;5073179;28;20107;-44
2023/01/21 05:16:07;;;;;;;33.00;10.93;;;-0.40;99.90;;;;;;5073909;28;20533;-42
2023/01/21 05:18:33;;;;;;;37.08;13.00;;;-0.50;99.90;;;;;;5073459;28;20166;-33
2023/01/21 05:20:58;;;;;;;32.65;11.45;;;-0.50;99.90;;;;;;5073510;28;20028;-41
2023/01/21 05:23:24;;;;;;;41.60;14.27;;;-0.50;99.90;;;;;;5072821;28;20025;-42
2023/01/21 05:25:50;;;;;;;31.65;12.25;;;-0.50;99.90;;;;;;5072940;28;20025;-42
2023/01/21 05:28:15;;;;;;;30.45;12.32;;;-0.50;99.90;;;;;;5071728;28;20028;-39
2023/01/21 05:30:41;;;;;;;34.25;12.25;;;-0.50;99.90;;;;;;5073589;28;20029;-39
2023/01/21 05:33:06;;;;;;;29.05;10.73;;;-0.50;99.90;;;;;;5073537;28;20078;-42
2023/01/21 05:35:34;;;;;;;36.22;12.27;;;-0.50;99.90;;;;;;5072728;28;20024;-40
2023/01/21 05:38:00;;;;;;;30.92;11.35;;;-0.50;99.90;;;;;;5073628;28;20472;-40
2023/01/21 05:40:25;;;;;;;28.67;11.30;;;-0.50;99.90;;;;;;5072100;28;20035;-43
2023/01/21 05:42:51;;;;;;;36.08;12.88;;;-0.50;99.90;;;;;;5072605;28;20028;-44
2023/01/21 05:45:17;;;;;;;45.42;13.43;;;-0.40;99.90;;;;;;5072428;28;20380;-44
2023/01/21 05:47:42;;;;;;;35.53;12.40;;;-0.40;99.90;;;;;;5073291;28;20538;-40
2023/01/21 05:50:09;;;;;;;33.20;12.00;;;-0.40;99.90;;;;;;5072250;28;20466;-42
2023/01/21 05:52:35;;;;;;;40.70;12.35;;;-0.40;99.90;;;;;;5073089;28;20544;-43
2023/01/21 05:55:01;;;;;;;28.13;11.85;;;-0.40;99.90;;;;;;5072296;28;20104;-42
2023/01/21 05:57:27;;;;;;;33.85;11.40;;;-0.50;99.90;;;;;;5070171;28;20025;-42
2023/01/21 05:59:52;;;;;;;35.72;12.38;;;-0.40;99.90;;;;;;5073157;28;20543;-39
2023/01/21 06:02:18;;;;;;;26.23;10.63;;;-0.40;99.90;;;;;;5073050;28;20246;-35
2023/01/21 06:04:44;;;;;;;30.40;11.75;;;-0.40;99.90;;;;;;5072145;28;20035;-36
2023/01/21 06:07:09;;;;;;;33.40;11.60;;;-0.40;99.90;;;;;;5072956;28;20029;-35
2023/01/21 06:09:38;;;;;;;37.58;12.73;;;-0.40;99.90;;;;;;5072969;28;20029;-36
2023/01/21 06:12:03;;;;;;;32.38;12.20;;;-0.50;99.90;;;;;;5071975;28;20081;-38
2023/01/21 06:14:29;;;;;;;42.65;12.40;;;-0.50;99.90;;;;;;5071902;28;20033;-38
2023/01/21 06:16:55;;;;;;;32.88;12.93;;;-0.50;99.90;;;;;;5073046;28;20025;-35
2023/01/21 06:19:20;;;;;;;35.65;13.75;;;-0.50;99.90;;;;;;5072156;28;20151;-37
2023/01/21 06:21:46;;;;;;;36.83;12.30;;;-0.50;99.90;;;;;;5073112;28;20086;-37
2023/01/21 06:24:11;;;;;;;39.55;13.60;;;-0.60;99.90;;;;;;5071967;28;20469;-38
2023/01/21 06:26:37;;;;;;;42.78;12.93;;;-0.50;99.90;;;;;;5072733;28;20034;-32
2023/01/21 06:29:02;;;;;;;33.45;12.05;;;-0.50;99.90;;;;;;5069751;28;20485;-42
2023/01/21 06:31:28;;;;;;;52.88;14.05;;;-0.50;99.90;;;;;;5073008;28;20029;-44
2023/01/21 06:33:54;;;;;;;40.88;13.50;;;-0.50;99.90;;;;;;5058933;28;20028;-41
2023/01/21 06:36:19;;;;;;;37.20;12.38;;;-0.50;99.90;;;;;;5071148;28;20040;-41
2023/01/21 06:38:45;;;;;;;34.38;12.65;;;-0.50;99.90;;;;;;5071826;28;20107;-39
2023/01/21 06:41:10;;;;;;;36.38;13.40;;;-0.50;99.90;;;;;;5072613;28;20033;-43
2023/01/21 06:43:36;;;;;;;38.65;12.85;;;-0.50;99.90;;;;;;5071946;28;20549;-35
2023/01/21 06:46:01;;;;;;;37.60;13.43;;;-0.50;99.90;;;;;;5070719;28;20035;-36
2023/01/21 06:48:27;;;;;;;37.60;12.38;;;-0.50;99.90;;;;;;5072598;28;20538;-39
2023/01/21 06:50:53;;;;;;;39.53;12.48;;;-0.40;99.90;;;;;;5070581;28;20056;-39
2023/01/21 06:53:18;;;;;;;37.97;11.93;;;-0.40;99.90;;;;;;5071308;28;20097;-34
2023/01/21 06:55:46;;;;;;;39.00;13.45;;;-0.40;99.90;;;;;;5072398;28;20028;-35
2023/01/21 06:58:11;;;;;;;38.55;13.15;;;-0.40;99.90;;;;;;5071754;28;20017;-37
2023/01/21 07:00:37;;;;;;;40.50;12.60;;;-0.30;99.90;;;;;;5071360;28;20505;-38
2023/01/21 07:03:03;;;;;;;43.28;13.60;;;-0.30;99.90;;;;;;5072424;28;20029;-39
2023/01/21 07:05:28;;;;;;;60.67;15.43;;;-0.20;99.90;;;;;;5069999;28;20619;-37
2023/01/21 07:07:55;;;;;;;35.17;12.57;;;-0.30;99.90;;;;;;5074116;28;20025;-35
2023/01/21 07:10:24;;;;;;;42.25;14.20;;;-0.30;99.90;;;;;;5074962;28;20051;-38
2023/01/21 07:12:50;;;;;;;49.25;14.02;;;-0.30;99.90;;;;;;5075747;28;20376;-34
2023/01/21 07:15:15;;;;;;;33.03;12.63;;;-0.30;99.90;;;;;;5076180;28;20108;-38
2023/01/21 07:17:41;;;;;;;46.08;13.05;;;-0.40;99.90;;;;;;5076161;28;20064;-38
2023/01/21 07:20:08;;;;;;;45.97;12.80;;;-0.40;99.90;;;;;;5075149;28;20111;-38
2023/01/21 07:22:34;;;;;;;51.97;13.07;;;-0.40;99.90;;;;;;5076077;28;20033;-38
2023/01/21 07:25:00;;;;;;;45.28;13.50;;;-0.40;99.90;;;;;;5076060;28;20388;-37
2023/01/21 07:27:26;;;;;;;49.85;13.68;;;-0.30;99.90;;;;;;5075961;28;20370;-37
2023/01/21 07:29:52;;;;;;;53.83;13.63;;;-0.40;99.90;;;;;;5073916;28;20044;-36
2023/01/21 07:32:17;;;;;;;47.10;14.15;;;-0.40;99.90;;;;;;5075867;28;20046;-34
2023/01/21 07:34:43;;;;;;;77.00;15.07;;;-0.50;99.90;;;;;;5074941;28;20028;-35
2023/01/21 07:37:09;;;;;;;65.90;15.40;;;-0.60;99.90;;;;;;5073698;28;20028;-35
2023/01/21 07:39:34;;;;;;;40.55;14.20;;;-0.70;99.90;;;;;;5075744;28;20031;-39
2023/01/21 07:42:00;;;;;;;38.50;12.65;;;-0.80;99.90;;;;;;5074977;28;20401;-38
2023/01/21 07:44:26;;;;;;;37.97;11.23;;;-0.70;99.90;;;;;;5074731;28;20059;-39
2023/01/21 07:46:51;;;;;;;40.35;13.73;;;-0.60;99.90;;;;;;5075628;28;20434;-39
2023/01/21 07:49:17;;;;;;;39.63;14.32;;;-0.50;99.90;;;;;;5075397;28;20024;-35
2023/01/21 07:51:47;;;;;;;39.80;12.20;;;-0.50;99.90;;;;;;5074719;28;20617;-41
2023/01/21 07:54:13;;;;;;;67.85;13.40;;;-0.50;99.90;;;;;;5075456;28;20044;-42
2023/01/21 07:56:39;;;;;;;42.72;14.00;;;-0.40;99.90;;;;;;5074893;28;20531;-40
2023/01/21 07:59:05;;;;;;;48.97;15.35;;;-0.50;99.90;;;;;;5073557;28;20150;-46
2023/01/21 08:01:31;;;;;;;38.50;11.80;;;-0.50;99.90;;;;;;5074707;28;20158;-43
2023/01/21 08:04:00;;;;;;;46.97;13.68;;;-0.40;99.90;;;;;;5075383;28;20509;-43
2023/01/21 08:06:26;;;;;;;43.55;13.38;;;-0.40;99.90;;;;;;5073844;28;20054;-43
2023/01/21 08:08:52;;;;;;;45.47;14.15;;;-0.40;99.90;;;;;;5074536;28;20369;-42
2023/01/21 08:11:18;;;;;;;36.00;12.55;;;-0.50;99.90;;;;;;5074387;28;20461;-44
2023/01/21 08:13:43;;;;;;;34.25;12.30;;;-0.50;99.90;;;;;;5074205;28;20029;-42
2023/01/21 08:16:12;;;;;;;43.33;12.75;;;-0.50;99.90;;;;;;5075062;28;20372;-46
2023/01/21 08:18:38;;;;;;;49.55;11.10;;;-0.40;99.90;;;;;;5074583;28;20025;-47
2023/01/21 08:21:04;;;;;;;36.88;11.23;;;-0.40;99.90;;;;;;5073997;28;20115;-43
2023/01/21 08:23:29;;;;;;;36.90;11.25;;;-0.30;99.90;;;;;;5074937;28;20016;-42
2023/01/21 08:25:55;;;;;;;36.10;12.38;;;-0.30;99.90;;;;;;5075242;28;20024;-44
2023/01/21 08:28:21;;;;;;;73.18;13.13;;;-0.30;99.90;;;;;;5074949;28;20024;-41
2023/01/21 08:30:47;;;;;;;58.00;14.98;;;-0.30;99.90;;;;;;5073213;28;20390;-44
2023/01/21 08:33:14;;;;;;;43.80;12.57;;;-0.30;99.90;;;;;;5074866;28;20091;-44
2023/01/21 08:35:40;;;;;;;42.45;12.43;;;-0.30;99.90;;;;;;5073697;28;20032;-49
2023/01/21 08:38:06;;;;;;;41.88;13.88;;;-0.30;99.90;;;;;;5073403;28;20078;-42
2023/01/21 08:40:31;;;;;;;43.28;11.85;;;-0.30;99.90;;;;;;5074706;28;20083;-43
2023/01/21 08:43:01;;;;;;;52.47;13.35;;;-0.20;99.90;;;;;;5072756;28;20048;-44
2023/01/21 08:45:28;;;;;;;38.40;13.23;;;-0.30;99.90;;;;;;5072502;28;20016;-41
2023/01/21 08:47:54;;;;;;;54.50;13.25;;;-0.30;99.90;;;;;;5073164;28;20036;-42
2023/01/21 08:50:20;;;;;;;45.40;13.15;;;-0.30;99.90;;;;;;5071898;28;20024;-40
2023/01/21 08:52:53;;;;;;;40.95;12.65;;;-0.30;99.90;;;;;;5073348;28;20048;-45
2023/01/21 08:55:20;;;;;;;45.28;13.90;;;-0.30;99.90;;;;;;5065410;28;20527;-46
2023/01/21 08:57:45;;;;;;;39.20;12.63;;;-0.20;99.90;;;;;;5067180;28;20032;-44
2023/01/21 09:00:13;;;;;;;34.92;10.88;;;-0.20;99.90;;;;;;5073776;28;20368;-45
2023/01/21 09:02:38;;;;;;;40.35;13.95;;;-0.20;99.90;;;;;;5072608;28;20385;-43
2023/01/21 09:05:05;;;;;;;43.53;14.02;;;-0.10;99.90;;;;;;5074173;28;20067;-42
2023/01/21 09:07:30;;;;;;;44.85;12.77;;;-0.20;99.90;;;;;;5072862;28;20500;-43
2023/01/21 09:09:56;;;;;;;36.80;10.98;;;-0.10;99.90;;;;;;5074359;28;20063;-42
2023/01/21 09:12:22;;;;;;;40.20;12.10;;;-0.20;99.90;;;;;;5073343;28;20036;-45
2023/01/21 09:14:47;;;;;;;38.90;12.52;;;-0.10;99.90;;;;;;5071872;28;20032;-44
2023/01/21 09:17:13;;;;;;;40.25;12.68;;;0.00;99.90;;;;;;5073892;28;20025;-41
2023/01/21 09:19:38;;;;;;;46.33;13.63;;;0.10;99.90;;;;;;5074024;28;20028;-45
2023/01/21 09:22:05;;;;;;;37.80;12.05;;;0.10;99.90;;;;;;5073843;28;20082;-40
2023/01/21 09:24:31;;;;;;;36.80;12.55;;;0.20;99.90;;;;;;5071432;28;20024;-43
2023/01/21 09:26:56;;;;;;;55.67;15.77;;;0.20;99.90;;;;;;5073485;28;20115;-43
2023/01/21 09:29:22;;;;;;;39.85;13.57;;;0.30;99.90;;;;;;5079359;28;20028;-48
2023/01/21 09:31:48;;;;;;;44.17;14.07;;;0.30;99.90;;;;;;5081545;28;20384;-41
2023/01/21 09:34:13;;;;;;;43.08;13.40;;;0.30;99.90;;;;;;5073941;28;20036;-41
2023/01/21 09:36:40;;;;;;;41.40;13.85;;;0.30;99.90;;;;;;5073459;28;20498;-44
2023/01/21 09:39:06;;;;;;;52.65;14.60;;;0.40;99.90;;;;;;5073357;28;20028;-41
2023/01/21 09:41:47;;;;;;;47.53;14.30;;;0.30;99.90;;;;;;5073640;28;20476;-42
2023/01/21 09:44:15;;;;;;;41.17;14.07;;;0.40;99.90;;;;;;5073352;28;20480;-43
2023/01/21 09:46:56;;;;;;;46.22;15.02;;;0.40;99.90;;;;;;5072314;28;20059;-42
2023/01/21 09:49:31;;;;;;;45.97;14.75;;;0.50;99.90;;;;;;5072923;28;20083;-41
2023/01/21 09:52:26;;;;;;;43.58;13.45;;;0.60;99.90;;;;;;5073107;28;20044;-40
2023/01/21 09:54:53;;;;;;;51.10;14.20;;;0.50;99.90;;;;;;5073213;28;20086;-43
2023/01/21 09:57:37;;;;;;;44.23;13.20;;;0.50;99.90;;;;;;5088733;28;20037;-42
2023/01/21 10:00:27;;;;;;;47.58;15.68;;;0.60;99.90;;;;;;5073070;28;20021;-41
2023/01/21 10:03:11;;;;;;;46.70;14.02;;;0.60;99.90;;;;;;5072669;28;20529;-44
2023/01/21 10:05:39;;;;;;;52.42;15.15;;;0.60;99.90;;;;;;5072501;28;20024;-44
2023/01/21 10:08:17;;;;;;;50.13;15.55;;;0.60;99.90;;;;;;5073027;28;20112;-41
2023/01/21 10:11:21;;;;;;;46.67;14.60;;;0.70;99.90;;;;;;5073117;28;20096;-41
2023/01/21 10:13:55;;;;;;;53.17;16.23;;;0.80;99.90;;;;;;5072399;28;20025;-41
2023/01/21 10:16:33;;;;;;;54.67;14.32;;;0.90;99.90;;;;;;5072822;28;20063;-44
2023/01/21 10:19:02;;;;;;;49.60;13.63;;;1.00;99.90;;;;;;5072909;28;20059;-43
2023/01/21 10:21:46;;;;;;;59.20;14.48;;;1.10;99.90;;;;;;5070937;28;20024;-42
2023/01/21 10:24:17;;;;;;;61.25;19.02;;;1.10;99.90;;;;;;5072751;28;20362;-43
2023/01/21 10:26:46;;;;;;;51.80;14.75;;;1.10;99.90;;;;;;5072747;28;20500;-44
2023/01/21 10:29:18;;;;;;;57.63;14.98;;;1.10;99.90;;;;;;5073048;28;20493;-43
2023/01/21 10:31:58;;;;;;;56.67;15.57;;;1.10;99.90;;;;;;5072818;28;20031;-42
2023/01/21 10:34:28;;;;;;;53.35;14.38;;;1.10;99.90;;;;;;5069148;28;20193;-41
2023/01/21 10:37:29;;;;;;;50.30;15.13;;;1.10;99.90;;;;;;5068673;28;20525;-41
2023/01/21 10:40:41;;;;;;;48.17;14.80;;;1.30;99.90;;;;;;5067155;28;20037;-42
2023/01/21 10:43:29;;;;;;;57.72;14.45;;;1.30;99.90;;;;;;5070151;28;20025;-39
2023/01/21 10:46:11;;;;;;;50.50;14.77;;;1.30;99.90;;;;;;5060955;28;20437;-39
2023/01/21 10:48:53;;;;;;;56.33;15.07;;;1.30;99.90;;;;;;5071291;28;20495;-42
2023/01/21 10:51:25;;;;;;;49.13;13.70;;;1.30;99.90;;;;;;5077786;28;20020;-42
2023/01/21 10:54:24;;;;;;;49.70;14.65;;;1.30;99.90;;;;;;5069510;28;20131;-41
2023/01/21 10:57:13;;;;;;;57.80;17.23;;;1.40;99.90;;;;;;5043210;28;20036;-46
2023/01/21 10:59:40;;;;;;;52.50;16.13;;;1.50;99.90;;;;;;5074902;28;20033;-40
2023/01/21 11:02:08;;;;;;;55.05;15.20;;;1.60;99.90;;;;;;5075994;28;20387;-45
2023/01/21 11:04:38;;;;;;;52.83;15.05;;;1.70;99.90;;;;;;5077783;28;20099;-42
2023/01/21 11:07:08;;;;;;;47.85;15.20;;;1.70;99.90;;;;;;5075680;28;20105;-43
2023/01/21 11:09:44;;;;;;;46.90;13.40;;;1.70;99.90;;;;;;5076193;28;20396;-41
2023/01/21 11:12:12;;;;;;;54.17;15.55;;;1.80;99.90;;;;;;5077793;28;20021;-42
2023/01/21 11:14:38;;;;;;;51.22;14.45;;;1.80;99.90;;;;;;5077553;28;20119;-42
2023/01/21 11:17:04;;;;;;;41.85;12.65;;;1.70;99.90;;;;;;5071082;28;20103;-42
2023/01/21 11:19:30;;;;;;;43.72;13.00;;;1.70;99.90;;;;;;5077774;28;20012;-42
2023/01/21 11:22:28;;;;;;;46.35;12.40;;;1.70;99.90;;;;;;5076685;28;20357;-41
2023/01/21 11:24:53;;;;;;;51.50;14.93;;;1.80;99.90;;;;;;5068180;28;20029;-42
2023/01/21 11:27:35;;;;;;;45.65;12.73;;;1.80;99.90;;;;;;5077966;28;20020;-44
2023/01/21 11:30:02;;;;;;;45.40;12.43;;;1.70;99.90;;;;;;5076090;28;20024;-43
2023/01/21 11:32:29;;;;;;;47.33;13.52;;;1.70;99.90;;;;;;5078689;28;20492;-43
2023/01/21 11:35:08;;;;;;;44.80;13.63;;;1.70;99.90;;;;;;5077997;28;20548;-44
2023/01/21 11:37:36;;;;;;;50.00;14.07;;;1.60;99.90;;;;;;5078810;28;20036;-45
2023/01/21 11:40:11;;;;;;;45.15;12.77;;;1.60;99.90;;;;;;5077481;28;20031;-39
2023/01/21 11:42:51;;;;;;;40.30;12.63;;;1.70;99.90;;;;;;5074911;28;20119;-41
2023/01/21 11:45:31;;;;;;;45.05;13.18;;;1.70;99.90;;;;;;5076194;28;20047;-42
2023/01/21 11:47:58;;;;;;;46.90;13.10;;;1.80;99.90;;;;;;5078167;28;20465;-43
2023/01/21 11:50:33;;;;;;;32.72;11.20;;;1.70;99.90;;;;;;5077021;28;20529;-42
2023/01/21 11:53:10;;;;;;;42.28;12.27;;;1.70;99.90;;;;;;5076966;28;20398;-42
2023/01/21 11:55:39;;;;;;;51.88;13.82;;;1.70;99.90;;;;;;5072191;28;20039;-41
2023/01/21 11:58:14;;;;;;;38.80;11.35;;;1.70;99.90;;;;;;5074453;28;20615;-46
2023/01/21 12:00:44;;;;;;;43.90;14.23;;;1.80;99.90;;;;;;5075305;28;20471;-41
2023/01/21 12:03:15;;;;;;;40.22;12.60;;;1.90;99.90;;;;;;5074719;28;20021;-44
2023/01/21 12:05:46;;;;;;;39.47;12.70;;;2.00;99.90;;;;;;5072412;28;20024;-42
2023/01/21 12:08:22;;;;;;;44.15;12.55;;;2.00;99.90;;;;;;5068422;28;20531;-42
2023/01/21 12:10:49;;;;;;;45.35;12.68;;;2.00;99.90;;;;;;5067991;28;20652;-44
2023/01/21 12:13:15;;;;;;;41.72;12.77;;;2.10;99.90;;;;;;5073951;28;20500;-47
2023/01/21 12:16:02;;;;;;;45.30;13.80;;;2.10;99.90;;;;;;5069737;28;20055;-42
2023/01/21 12:18:40;;;;;;;42.53;13.10;;;2.00;99.90;;;;;;5065649;28;20464;-40
2023/01/21 12:21:33;;;;;;;53.25;14.35;;;2.00;99.90;;;;;;5073762;28;20036;-44
2023/01/21 12:24:21;;;;;;;46.58;12.60;;;2.00;99.90;;;;;;5072295;28;20059;-41
2023/01/21 12:27:02;;;;;;;50.80;13.23;;;2.00;99.90;;;;;;5070034;28;20469;-39
2023/01/21 12:29:37;;;;;;;41.80;12.63;;;2.00;99.90;;;;;;5066493;28;20476;-41
2023/01/21 12:32:13;;;;;;;41.08;13.23;;;1.90;99.90;;;;;;5069596;28;20468;-41
2023/01/21 12:35:04;;;;;;;40.33;12.30;;;1.90;99.90;;;;;;5070896;28;20540;-41
2023/01/21 12:37:41;;;;;;;42.75;13.68;;;2.00;99.90;;;;;;5061199;28;20039;-40
2023/01/21 12:40:29;;;;;;;39.25;12.48;;;2.10;99.90;;;;;;5073612;28;20041;-41
2023/01/21 12:42:59;;;;;;;43.40;11.70;;;2.20;99.90;;;;;;5069911;28;20465;-41
2023/01/21 12:45:31;;;;;;;44.85;11.95;;;2.40;99.90;;;;;;5063478;28;20357;-42
2023/01/21 12:48:20;;;;;;;39.92;12.32;;;2.40;99.90;;;;;;5073583;28;20063;-43
2023/01/21 12:50:51;;;;;;;41.15;12.45;;;2.40;99.90;;;;;;5072286;28;20508;-42
2023/01/21 12:53:48;;;;;;;37.33;12.55;;;2.20;99.90;;;;;;5062530;28;20045;-44